createdAt,value
2018-06-15T00:00:52.463Z,6.87
2018-06-15T00:03:21.808Z,6.50
2018-06-15T00:05:50.954Z,5.70
2018-06-15T00:08:20.548Z,6.20
2018-06-15T00:10:49.616Z,6.10
2018-06-15T00:13:19.081Z,6.07
2018-06-15T00:15:48.598Z,6.20
2018-06-15T00:18:18.072Z,6.50
2018-06-15T00:20:47.799Z,6.60
2018-06-15T00:23:17.222Z,6.20
2018-06-15T00:25:46.849Z,5.77
2018-06-15T00:28:16.208Z,5.57
2018-06-15T00:30:45.815Z,5.50
2018-06-15T00:33:15.253Z,5.67
2018-06-15T00:35:44.657Z,6.23
2018-06-15T00:38:14.099Z,5.83
2018-06-15T00:40:43.517Z,5.20
2018-06-15T00:43:12.943Z,5.67
2018-06-15T00:45:42.667Z,5.70
2018-06-15T00:48:12.343Z,5.67
2018-06-15T00:50:41.657Z,6.13
2018-06-15T00:53:11.268Z,7.60
2018-06-15T00:55:41.006Z,7.20
2018-06-15T00:58:10.368Z,8.17
2018-06-15T01:00:39.988Z,7.67
2018-06-15T01:03:08.960Z,9.70
2018-06-15T01:05:38.207Z,10.00
2018-06-15T01:08:07.613Z,10.23
2018-06-15T01:10:37.056Z,11.30
2018-06-15T01:13:06.518Z,11.80
2018-06-15T01:15:36.175Z,12.37
2018-06-15T01:18:05.237Z,12.60
2018-06-15T01:20:34.640Z,12.03
2018-06-15T01:23:04.562Z,12.73
2018-06-15T01:25:33.620Z,12.70
2018-06-15T01:28:02.969Z,12.67
2018-06-15T01:30:32.284Z,12.03
2018-06-15T01:33:01.436Z,12.07
2018-06-15T01:35:30.647Z,12.97
2018-06-15T01:38:00.025Z,12.20
2018-06-15T01:40:29.425Z,12.40
2018-06-15T01:42:58.844Z,12.33
2018-06-15T01:45:28.182Z,11.90
2018-06-15T01:47:57.284Z,12.57
2018-06-15T01:50:26.381Z,12.03
2018-06-15T01:52:55.481Z,12.30
2018-06-15T01:55:24.855Z,11.97
2018-06-15T01:57:54.285Z,11.70
2018-06-15T02:00:23.756Z,11.00
2018-06-15T02:02:53.155Z,11.93
2018-06-15T02:05:22.492Z,12.00
2018-06-15T02:07:51.972Z,10.60
2018-06-15T02:10:21.789Z,11.53
2018-06-15T02:12:51.147Z,11.30
2018-06-15T02:15:20.500Z,11.60
2018-06-15T02:17:49.892Z,10.83
2018-06-15T02:20:19.236Z,12.10
2018-06-15T02:22:48.572Z,11.83
2018-06-15T02:25:17.946Z,11.13
2018-06-15T02:27:47.294Z,11.80
2018-06-15T02:30:16.688Z,10.60
2018-06-15T02:32:45.981Z,9.23
2018-06-15T02:35:15.362Z,10.40
2018-06-15T02:37:45.423Z,10.63
2018-06-15T02:40:15.061Z,10.43
2018-06-15T02:42:44.135Z,11.20
2018-06-15T02:45:13.807Z,12.10
2018-06-15T02:47:43.164Z,12.10
2018-06-15T02:50:12.318Z,12.27
2018-06-15T02:52:41.678Z,12.30
2018-06-15T02:55:11.113Z,13.73
2018-06-15T02:57:40.464Z,13.13
2018-06-15T03:00:09.854Z,19.30
2018-06-15T03:02:39.244Z,13.30
2018-06-15T03:05:08.641Z,12.60
2018-06-15T03:07:38.017Z,12.43
2018-06-15T03:10:07.643Z,13.28
2018-06-15T03:12:36.696Z,13.50
2018-06-15T03:15:06.915Z,13.90
2018-06-15T03:17:36.106Z,13.63
2018-06-15T03:20:05.792Z,13.00
2018-06-15T03:22:35.231Z,14.37
2018-06-15T03:25:04.666Z,14.37
2018-06-15T03:27:34.271Z,15.07
2018-06-15T03:30:03.599Z,14.80
2018-06-15T03:32:32.991Z,15.73
2018-06-15T03:35:02.492Z,13.43
2018-06-15T03:37:32.203Z,14.70
2018-06-15T03:40:01.802Z,14.77
2018-06-15T03:42:31.160Z,14.03
2018-06-15T03:45:00.601Z,15.40
2018-06-15T03:47:29.624Z,16.33
2018-06-15T03:49:59.058Z,15.57
2018-06-15T03:52:28.449Z,20.40
2018-06-15T03:54:57.857Z,19.27
2018-06-15T03:57:27.318Z,15.80
2018-06-15T03:59:56.724Z,15.10
2018-06-15T04:02:26.196Z,15.83
2018-06-15T04:04:55.535Z,25.07
2018-06-15T04:07:24.966Z,15.93
2018-06-15T04:09:54.321Z,15.90
2018-06-15T04:12:23.787Z,17.40
2018-06-15T04:14:53.177Z,17.60
2018-06-15T04:17:22.588Z,18.37
2018-06-15T04:19:52.049Z,33.00
2018-06-15T04:22:21.571Z,15.43
2018-06-15T04:24:50.872Z,16.00
2018-06-15T04:27:20.282Z,15.67
2018-06-15T04:29:49.732Z,15.63
2018-06-15T04:32:18.801Z,17.27
2018-06-15T04:34:48.108Z,16.40
2018-06-15T04:37:17.569Z,15.40
2018-06-15T04:39:47.107Z,15.70
2018-06-15T04:42:16.496Z,14.20
2018-06-15T04:44:45.961Z,15.23
2018-06-15T04:47:15.724Z,14.93
2018-06-15T04:49:45.299Z,15.03
2018-06-15T04:52:14.641Z,15.43
2018-06-15T04:54:44.026Z,16.80
2018-06-15T04:57:13.447Z,18.10
2018-06-15T04:59:42.942Z,16.17
2018-06-15T05:02:12.311Z,16.80
2018-06-15T05:04:41.678Z,15.70
2018-06-15T05:07:10.852Z,15.53
2018-06-15T05:09:40.645Z,16.67
2018-06-15T05:12:10.241Z,15.33
2018-06-15T05:14:39.705Z,16.40
2018-06-15T05:17:09.461Z,14.47
2018-06-15T05:19:38.767Z,13.93
2018-06-15T05:22:08.686Z,14.90
2018-06-15T05:24:38.251Z,15.30
2018-06-15T05:27:07.876Z,17.37
2018-06-15T05:29:37.183Z,15.63
2018-06-15T05:32:06.663Z,14.47
2018-06-15T05:34:36.066Z,15.97
2018-06-15T05:37:05.518Z,18.80
2018-06-15T05:39:34.932Z,17.73
2018-06-15T05:42:04.421Z,15.80
2018-06-15T05:44:33.885Z,15.47
2018-06-15T05:47:03.283Z,15.93
2018-06-15T05:49:34.475Z,14.83
2018-06-15T05:52:04.064Z,15.03
2018-06-15T05:54:33.478Z,15.77
2018-06-15T05:57:02.756Z,15.03
2018-06-15T05:59:32.201Z,16.53
2018-06-15T06:02:01.592Z,14.47
2018-06-15T06:04:31.184Z,17.27
2018-06-15T06:07:00.884Z,16.30
2018-06-15T06:09:30.210Z,16.90
2018-06-15T06:11:59.626Z,17.30
2018-06-15T06:14:29.021Z,15.53
2018-06-15T06:16:58.541Z,21.50
2018-06-15T06:19:27.938Z,23.20
2018-06-15T06:21:57.068Z,17.70
2018-06-15T06:24:26.140Z,15.27
2018-06-15T06:26:55.559Z,16.20
2018-06-15T06:29:25.098Z,14.97
2018-06-15T06:31:54.504Z,17.40
2018-06-15T06:34:23.984Z,16.83
2018-06-15T06:36:53.862Z,16.27
2018-06-15T06:39:23.029Z,16.97
2018-06-15T06:41:52.513Z,17.13
2018-06-15T06:44:21.877Z,18.67
2018-06-15T06:46:50.936Z,18.37
2018-06-15T06:49:20.366Z,23.13
2018-06-15T06:51:50.149Z,17.40
2018-06-15T06:54:19.899Z,15.70
2018-06-15T06:56:49.232Z,26.90
2018-06-15T06:59:18.595Z,20.40
2018-06-15T07:01:47.961Z,14.57
2018-06-15T07:04:17.369Z,18.87
2018-06-15T07:06:46.688Z,16.13
2018-06-15T07:09:16.268Z,15.90
2018-06-15T07:11:45.707Z,16.63
2018-06-15T07:14:15.094Z,15.87
2018-06-15T07:16:44.475Z,16.80
2018-06-15T07:19:13.796Z,16.40
2018-06-15T07:21:43.173Z,16.97
2018-06-15T07:24:12.682Z,19.20
2018-06-15T07:26:42.538Z,15.27
2018-06-15T07:29:11.925Z,14.60
2018-06-15T07:31:41.296Z,17.77
2018-06-15T07:34:10.678Z,15.53
2018-06-15T07:36:40.107Z,14.57
2018-06-15T07:39:10.572Z,15.33
2018-06-15T07:41:39.809Z,16.40
2018-06-15T07:44:09.986Z,15.13
2018-06-15T07:46:39.420Z,15.80
2018-06-15T07:49:08.775Z,17.47
2018-06-15T07:51:38.181Z,19.50
2018-06-15T07:54:07.572Z,16.17
2018-06-15T07:56:36.952Z,17.97
2018-06-15T07:59:06.935Z,13.80
2018-06-15T08:01:36.359Z,14.43
2018-06-15T08:04:08.069Z,16.30
2018-06-15T08:06:37.450Z,13.17
2018-06-15T08:09:08.313Z,14.17
2018-06-15T08:11:37.880Z,13.30
2018-06-15T08:14:07.267Z,13.33
2018-06-15T08:16:36.670Z,13.10
2018-06-15T08:19:06.398Z,14.17
2018-06-15T08:21:35.952Z,12.93
2018-06-15T08:24:05.666Z,13.57
2018-06-15T08:26:35.101Z,12.30
2018-06-15T08:29:04.536Z,12.90
2018-06-15T08:31:33.729Z,12.80
2018-06-15T08:34:02.959Z,14.10
2018-06-15T08:36:32.385Z,13.57
2018-06-15T08:39:02.068Z,14.63
2018-06-15T08:41:31.215Z,14.30
2018-06-15T08:44:00.600Z,14.87
2018-06-15T08:46:29.932Z,14.43
2018-06-15T08:48:59.300Z,13.50
2018-06-15T08:51:28.667Z,14.57
2018-06-15T08:53:57.959Z,13.63
2018-06-15T08:56:27.280Z,13.60
2018-06-15T08:58:56.639Z,13.43
2018-06-15T09:01:26.014Z,13.97
2018-06-15T09:03:55.883Z,15.00
2018-06-15T09:06:25.260Z,11.50
2018-06-15T09:08:54.688Z,12.70
2018-06-15T09:11:24.079Z,11.90
2018-06-15T09:13:53.495Z,12.53
2018-06-15T09:16:22.984Z,12.37
2018-06-15T09:18:52.315Z,14.27
2018-06-15T09:21:21.809Z,13.23
2018-06-15T09:23:51.119Z,12.83
2018-06-15T09:26:20.548Z,12.87
2018-06-15T09:28:49.933Z,14.80
2018-06-15T09:31:19.336Z,14.20
2018-06-15T09:33:48.763Z,11.77
2018-06-15T09:36:18.119Z,13.17
2018-06-15T09:38:47.502Z,13.10
2018-06-15T09:41:16.778Z,14.90
2018-06-15T09:43:46.146Z,13.00
2018-06-15T09:46:15.923Z,12.80
2018-06-15T09:48:45.505Z,12.00
2018-06-15T09:51:15.671Z,12.23
2018-06-15T09:53:45.054Z,12.50
2018-06-15T09:56:14.416Z,19.27
2018-06-15T09:58:43.848Z,13.87
2018-06-15T10:01:13.251Z,14.10
2018-06-15T10:03:42.585Z,16.83
2018-06-15T10:06:12.046Z,11.20
2018-06-15T10:08:41.637Z,12.20
2018-06-15T10:11:10.981Z,15.67
2018-06-15T10:13:40.420Z,12.60
2018-06-15T10:16:09.828Z,14.10
2018-06-15T10:18:39.174Z,12.97
2018-06-15T10:21:08.631Z,11.60
2018-06-15T10:23:37.983Z,11.50
2018-06-15T10:26:07.437Z,11.87
2018-06-15T10:28:36.771Z,12.43
2018-06-15T10:31:06.181Z,12.10
2018-06-15T10:33:35.495Z,12.20
2018-06-15T10:36:05.067Z,11.70
2018-06-15T10:38:34.750Z,12.07
2018-06-15T10:41:04.113Z,12.03
2018-06-15T10:43:33.574Z,8.70
2018-06-15T10:46:02.967Z,8.33
2018-06-15T10:48:32.359Z,8.60
2018-06-15T10:51:01.727Z,10.40
2018-06-15T10:53:31.381Z,9.90
2018-06-15T10:56:00.722Z,10.30
2018-06-15T10:58:30.226Z,10.80
2018-06-15T11:00:59.612Z,8.97
2018-06-15T11:03:28.956Z,9.77
2018-06-15T11:05:58.290Z,9.10
2018-06-15T11:08:27.694Z,9.07
2018-06-15T11:10:57.018Z,8.60
2018-06-15T11:13:26.377Z,14.20
2018-06-15T11:15:55.792Z,9.80
2018-06-15T11:18:25.159Z,11.20
2018-06-15T11:20:54.499Z,7.60
2018-06-15T11:23:23.920Z,7.93
2018-06-15T11:25:53.236Z,7.50
2018-06-15T11:28:22.592Z,7.07
2018-06-15T11:30:51.957Z,6.83
2018-06-15T11:33:21.310Z,6.07
2018-06-15T11:35:50.720Z,4.80
2018-06-15T11:38:20.678Z,5.70
2018-06-15T11:40:50.059Z,4.90
2018-06-15T11:43:19.464Z,7.70
2018-06-15T11:45:48.933Z,5.07
2018-06-15T11:48:18.334Z,6.43
2018-06-15T11:50:47.688Z,6.40
2018-06-15T11:53:17.120Z,5.40
2018-06-15T11:55:46.475Z,7.23
2018-06-15T11:58:15.833Z,4.13
2018-06-15T12:00:45.176Z,5.77
2018-06-15T12:03:14.786Z,4.87
2018-06-15T12:05:44.500Z,4.53
2018-06-15T12:08:13.847Z,4.27
2018-06-15T12:10:43.148Z,10.67
2018-06-15T12:13:12.504Z,4.50
2018-06-15T12:15:41.899Z,5.40
2018-06-15T12:18:11.340Z,5.83
2018-06-15T12:20:40.686Z,4.10
2018-06-15T12:23:10.069Z,5.23
2018-06-15T12:25:39.133Z,5.07
2018-06-15T12:28:08.553Z,4.63
2018-06-15T12:30:37.944Z,6.90
2018-06-15T12:33:07.303Z,7.50
2018-06-15T12:35:36.426Z,76.83
2018-06-15T12:38:05.807Z,5.80
2018-06-15T12:40:35.239Z,6.07
2018-06-15T12:43:04.655Z,7.00
2018-06-15T12:45:34.073Z,5.97
2018-06-15T12:48:03.531Z,5.17
2018-06-15T12:50:32.980Z,5.70
2018-06-15T12:53:02.369Z,5.37
2018-06-15T12:55:31.875Z,5.80
2018-06-15T12:58:01.328Z,6.00
2018-06-15T13:00:30.806Z,5.37
2018-06-15T13:03:00.170Z,5.40
2018-06-15T13:05:29.625Z,5.20
2018-06-15T13:07:59.033Z,7.37
2018-06-15T13:10:28.614Z,6.40
2018-06-15T13:12:58.021Z,5.60
2018-06-15T13:15:27.480Z,5.07
2018-06-15T13:17:57.072Z,5.20
2018-06-15T13:20:26.562Z,5.20
2018-06-15T13:22:56.015Z,7.00
2018-06-15T13:25:25.484Z,10.50
2018-06-15T13:27:55.004Z,12.40
2018-06-15T13:30:24.334Z,6.70
2018-06-15T13:32:53.759Z,5.90
2018-06-15T13:35:23.543Z,4.53
2018-06-15T13:37:53.483Z,3.87
2018-06-15T13:40:23.175Z,4.30
2018-06-15T13:42:52.571Z,3.50
2018-06-15T13:45:21.965Z,3.63
2018-06-15T13:47:51.352Z,2.97
2018-06-15T13:50:20.744Z,3.50
2018-06-15T13:52:50.166Z,2.93
2018-06-15T13:55:19.573Z,3.77
2018-06-15T13:57:49.802Z,3.90
2018-06-15T14:00:19.499Z,3.60
2018-06-15T14:02:48.659Z,3.70
2018-06-15T14:05:18.276Z,3.30
2018-06-15T14:07:47.708Z,4.00
2018-06-15T14:10:17.050Z,4.17
2018-06-15T14:12:46.509Z,4.60
2018-06-15T14:15:15.805Z,4.23
2018-06-15T14:17:45.159Z,10.50
2018-06-15T14:20:14.575Z,6.03
2018-06-15T14:22:44.212Z,4.77
2018-06-15T14:25:13.721Z,5.20
2018-06-15T14:27:43.216Z,5.73
2018-06-15T14:30:12.591Z,4.80
2018-06-15T14:32:42.267Z,4.30
2018-06-15T14:35:11.928Z,6.90
2018-06-15T14:37:43.906Z,4.60
2018-06-15T14:40:15.567Z,4.63
2018-06-15T14:42:45.210Z,4.93
2018-06-15T14:45:15.101Z,4.53
2018-06-15T14:47:44.551Z,5.27
2018-06-15T14:50:13.948Z,5.13
2018-06-15T14:52:43.218Z,5.30
2018-06-15T14:55:12.762Z,5.27
2018-06-15T14:57:42.229Z,5.00
2018-06-15T15:00:11.882Z,5.50
2018-06-15T15:02:41.072Z,4.63
2018-06-15T15:05:10.352Z,5.50
2018-06-15T15:07:40.028Z,4.60
2018-06-15T15:10:09.666Z,4.30
2018-06-15T15:12:39.215Z,4.67
2018-06-15T15:15:08.651Z,4.30
2018-06-15T15:17:38.131Z,4.67
2018-06-15T15:20:07.493Z,4.40
2018-06-15T15:22:36.950Z,5.40
2018-06-15T15:25:06.756Z,4.97
2018-06-15T15:27:37.053Z,4.30
2018-06-15T15:30:07.854Z,4.73
2018-06-15T15:32:37.416Z,4.47
2018-06-15T15:35:07.049Z,4.80
2018-06-15T15:37:36.448Z,4.30
2018-06-15T15:40:05.908Z,4.20
2018-06-15T15:42:35.639Z,4.37
2018-06-15T15:45:05.541Z,5.37
2018-06-15T15:47:35.065Z,5.20
2018-06-15T15:50:04.896Z,4.83
2018-06-15T15:52:35.051Z,4.47
2018-06-15T15:55:04.247Z,7.80
2018-06-15T15:57:33.715Z,5.10
2018-06-15T16:00:03.659Z,4.37
2018-06-15T16:02:32.890Z,4.40
2018-06-15T16:05:02.700Z,4.13
2018-06-15T16:07:32.308Z,5.03
2018-06-15T16:10:01.886Z,5.17
2018-06-15T16:12:31.666Z,7.50
2018-06-15T16:15:01.176Z,4.60
2018-06-15T16:17:32.604Z,4.87
2018-06-15T16:20:02.382Z,4.87
2018-06-15T16:22:31.886Z,4.30
2018-06-15T16:25:01.473Z,4.33
2018-06-15T16:27:31.630Z,4.80
2018-06-15T16:30:00.999Z,5.20
2018-06-15T16:32:30.101Z,4.70
2018-06-15T16:34:59.651Z,4.47
2018-06-15T16:37:29.243Z,4.20
2018-06-15T16:39:58.664Z,4.53
2018-06-15T16:42:28.219Z,4.67
2018-06-15T16:44:58.042Z,4.60
2018-06-15T16:47:27.664Z,3.93
2018-06-15T16:49:56.825Z,5.50
2018-06-15T16:52:26.341Z,5.80
2018-06-15T16:54:55.697Z,4.43
2018-06-15T16:57:25.661Z,4.80
2018-06-15T16:59:55.471Z,4.83
2018-06-15T17:02:25.305Z,4.10
2018-06-15T17:04:54.926Z,4.90
2018-06-15T17:07:24.809Z,4.90
2018-06-15T17:09:54.348Z,4.70
2018-06-15T17:12:24.133Z,12.10
2018-06-15T17:14:54.044Z,5.47
2018-06-15T17:17:23.546Z,4.80
2018-06-15T17:19:53.117Z,4.53
2018-06-15T17:22:22.293Z,5.30
2018-06-15T17:24:51.843Z,5.10
2018-06-15T17:27:21.695Z,5.27
2018-06-15T17:29:51.194Z,4.80
2018-06-15T17:32:20.925Z,4.80
2018-06-15T17:34:50.554Z,4.50
2018-06-15T17:37:20.509Z,8.50
2018-06-15T17:39:49.997Z,7.60
2018-06-15T17:42:19.560Z,4.63
2018-06-15T17:44:48.960Z,6.20
2018-06-15T17:47:18.555Z,5.20
2018-06-15T17:49:47.998Z,5.57
2018-06-15T17:52:17.460Z,5.20
2018-06-15T17:54:47.008Z,6.40
2018-06-15T17:57:16.945Z,5.10
2018-06-15T17:59:46.542Z,6.63
2018-06-15T18:02:16.081Z,7.20
2018-06-15T18:04:45.516Z,5.90
2018-06-15T18:07:15.894Z,7.23
2018-06-15T18:09:45.358Z,6.27
2018-06-15T18:12:15.195Z,5.70
2018-06-15T18:14:45.223Z,4.80
2018-06-15T18:17:14.938Z,9.13
2018-06-15T18:19:44.476Z,5.63
2018-06-15T18:22:13.877Z,5.20
2018-06-15T18:24:43.616Z,4.33
2018-06-15T18:27:12.976Z,6.57
2018-06-15T18:29:42.427Z,4.60
2018-06-15T18:32:11.950Z,5.00
2018-06-15T18:34:41.667Z,4.80
2018-06-15T18:37:10.826Z,5.47
2018-06-15T18:39:40.116Z,5.43
2018-06-15T18:42:09.858Z,6.43
2018-06-15T18:44:39.422Z,6.37
2018-06-15T18:47:08.756Z,8.33
2018-06-15T18:49:38.229Z,6.13
2018-06-15T18:52:07.803Z,4.67
2018-06-15T18:54:37.385Z,4.90
2018-06-15T18:57:06.941Z,5.50
2018-06-15T18:59:37.338Z,6.40
2018-06-15T19:02:06.833Z,6.27
2018-06-15T19:04:36.329Z,5.50
2018-06-15T19:07:06.342Z,5.87
2018-06-15T19:09:35.868Z,7.93
2018-06-15T19:12:05.751Z,6.97
2018-06-15T19:14:35.265Z,8.67
2018-06-15T19:17:05.038Z,8.43
2018-06-15T19:19:34.429Z,6.67
2018-06-15T19:22:03.888Z,5.87
2018-06-15T19:24:33.295Z,6.20
2018-06-15T19:27:02.823Z,6.93
2018-06-15T19:29:32.290Z,5.50
2018-06-15T19:32:01.804Z,5.00
2018-06-15T19:34:31.217Z,5.70
2018-06-15T19:37:01.080Z,5.03
2018-06-15T19:39:30.484Z,4.97
2018-06-15T19:42:00.180Z,7.50
2018-06-15T19:44:29.852Z,4.70
2018-06-15T19:46:59.482Z,4.70
2018-06-15T19:49:29.199Z,4.93
2018-06-15T19:51:58.921Z,4.83
2018-06-15T19:54:28.355Z,5.20
2018-06-15T19:56:57.881Z,5.50
2018-06-15T19:59:27.303Z,8.17
2018-06-15T20:01:56.793Z,5.70
2018-06-15T20:04:26.331Z,6.07
2018-06-15T20:06:55.865Z,5.90
2018-06-15T20:09:25.679Z,6.20
2018-06-15T20:11:55.223Z,6.30
2018-06-15T20:14:24.644Z,4.90
2018-06-15T20:16:54.201Z,7.37
2018-06-15T20:19:23.624Z,6.00
2018-06-15T20:21:53.190Z,6.23
2018-06-15T20:24:22.576Z,7.40
2018-06-15T20:26:52.450Z,7.40
2018-06-15T20:29:21.825Z,7.30
2018-06-15T20:31:50.944Z,6.67
2018-06-15T20:34:20.280Z,6.00
2018-06-15T20:36:49.644Z,6.03
2018-06-15T20:39:19.017Z,6.83
2018-06-15T20:41:48.211Z,7.93
2018-06-15T20:44:17.593Z,7.43
2018-06-15T20:46:46.861Z,7.77
2018-06-15T20:49:16.200Z,6.93
2018-06-15T20:51:45.551Z,7.07
2018-06-15T20:54:15.020Z,7.30
2018-06-15T20:56:44.818Z,6.87
2018-06-15T20:59:14.235Z,6.80
2018-06-15T21:01:43.561Z,7.10
2018-06-15T21:04:12.948Z,8.17
2018-06-15T21:06:42.388Z,7.60
2018-06-15T21:09:11.793Z,7.57
2018-06-15T21:11:41.396Z,7.73
2018-06-15T21:14:10.784Z,7.80
2018-06-15T21:16:40.132Z,9.10
2018-06-15T21:19:09.328Z,8.70
2018-06-15T21:21:38.549Z,7.63
2018-06-15T21:24:07.838Z,8.43
2018-06-15T21:26:37.268Z,7.60
2018-06-15T21:29:06.702Z,7.50
2018-06-15T21:31:35.794Z,7.57
2018-06-15T21:34:06.141Z,8.23
2018-06-15T21:36:35.438Z,7.23
2018-06-15T21:39:07.611Z,8.27
2018-06-15T21:41:37.061Z,8.60
2018-06-15T21:44:06.499Z,8.00
2018-06-15T21:46:35.913Z,8.60
2018-06-15T21:49:05.287Z,9.17
2018-06-15T21:51:34.826Z,8.90
2018-06-15T21:54:04.205Z,8.37
2018-06-15T21:56:33.681Z,7.70
2018-06-15T21:59:03.095Z,8.77
2018-06-15T22:01:32.560Z,7.87
2018-06-15T22:04:01.640Z,9.13
2018-06-15T22:06:30.771Z,8.07
2018-06-15T22:09:00.208Z,8.37
2018-06-15T22:11:29.653Z,8.80
2018-06-15T22:13:59.042Z,9.30
2018-06-15T22:16:32.684Z,9.13
2018-06-15T22:19:01.754Z,9.40
2018-06-15T22:21:30.811Z,8.23
2018-06-15T22:24:00.296Z,9.10
2018-06-15T22:26:29.602Z,8.50
2018-06-15T22:28:59.179Z,8.73
2018-06-15T22:31:28.583Z,9.10
2018-06-15T22:33:57.910Z,9.30
2018-06-15T22:36:27.315Z,9.57
2018-06-15T22:38:56.609Z,8.77
2018-06-15T22:41:25.970Z,9.83
2018-06-15T22:43:55.664Z,10.90
2018-06-15T22:46:25.273Z,8.90
2018-06-15T22:48:54.596Z,9.90
2018-06-15T22:51:23.970Z,9.53
2018-06-15T22:53:53.342Z,9.57
2018-06-15T22:56:22.706Z,9.60
2018-06-15T22:58:52.068Z,9.47
2018-06-15T23:01:21.481Z,9.57
2018-06-15T23:03:50.802Z,10.07
2018-06-15T23:06:20.650Z,9.87
2018-06-15T23:08:50.092Z,9.53
2018-06-15T23:11:19.513Z,9.77
2018-06-15T23:13:49.242Z,9.07
2018-06-15T23:16:18.698Z,9.80
2018-06-15T23:18:48.247Z,10.10
2018-06-15T23:21:17.922Z,9.50
2018-06-15T23:23:47.646Z,9.20
2018-06-15T23:26:17.249Z,9.77
2018-06-15T23:28:46.964Z,10.27
2018-06-15T23:31:16.584Z,9.33
2018-06-15T23:33:45.871Z,10.40
2018-06-15T23:36:15.428Z,9.87
2018-06-15T23:38:45.146Z,9.27
2018-06-15T23:41:14.510Z,10.03
2018-06-15T23:43:43.766Z,9.73
2018-06-15T23:46:13.226Z,9.57
2018-06-15T23:48:42.889Z,11.00
2018-06-15T23:51:12.687Z,10.40
2018-06-15T23:53:42.593Z,10.30
2018-06-15T23:56:11.929Z,9.50
2018-06-15T23:58:41.509Z,10.07
